Sarov, Russia
Current Conditions -  °F | °C
As of 1:30 AM on Tuesday 23 Dec 2014 (Local Time) from UWGG Reporting Station
Broken Clouds Broken Clouds  
Wind Chill: 21°   Ceiling: 3300
Heat Index: 28°   Visibility: 6mi
Dew Point: 21°   Wind: 7mph
Humidity: 74%   Direction: 210°SSW
Pressure: 29.47"   Gusts: NA
Location:  54.93°N, 43.33°E
Report Text: UWGG 222230Z 21003MPS 9999 BKN033 M02/M06 Q0998 NOSIG 18850040RMK QFE742
Loading
Personal Weather Stations






























Interactive Weather Map New forecast layout! Learn more

10-Day Weather Forecast

Advertisements
Track Severe Weather on mobile